sensor_id;sensor_type;location;lat;lon;timestamp;pressure;altitude;pressure_sealevel;temperature;humidity
10115;BME280;5097;43.260;27.812;2023-04-20T00:01:48;99602.59;;;9.51;100.00
10115;BME280;5097;43.260;27.812;2023-04-20T00:04:34;99576.75;;;9.42;100.00
10115;BME280;5097;43.260;27.812;2023-04-20T00:07:18;99580.00;;;9.15;100.00
10115;BME280;5097;43.260;27.812;2023-04-20T00:10:03;99574.91;;;9.12;100.00
10115;BME280;5097;43.260;27.812;2023-04-20T00:12:48;99601.06;;;9.47;100.00
10115;BME280;5097;43.260;27.812;2023-04-20T00:15:32;99594.44;;;9.39;100.00
10115;BME280;5097;43.260;27.812;2023-04-20T00:18:16;99558.91;;;9.15;100.00
10115;BME280;5097;43.260;27.812;2023-04-20T00:21:02;99558.25;;;9.27;100.00
10115;BME280;5097;43.260;27.812;2023-04-20T00:23:46;99564.13;;;9.00;100.00
10115;BME280;5097;43.260;27.812;2023-04-20T00:26:30;99554.59;;;9.14;100.00
10115;BME280;5097;43.260;27.812;2023-04-20T00:29:15;99605.47;;;9.62;100.00
10115;BME280;5097;43.260;27.812;2023-04-20T00:32:00;99570.41;;;9.60;99.52
10115;BME280;5097;43.260;27.812;2023-04-20T00:34:44;99569.00;;;9.38;100.00
10115;BME280;5097;43.260;27.812;2023-04-20T00:37:29;99586.13;;;9.62;100.00
10115;BME280;5097;43.260;27.812;2023-04-20T00:40:13;99590.38;;;9.64;100.00
10115;BME280;5097;43.260;27.812;2023-04-20T00:43:08;99594.25;;;9.89;99.42
10115;BME280;5097;43.260;27.812;2023-04-20T00:45:52;99592.44;;;9.89;99.04
10115;BME280;5097;43.260;27.812;2023-04-20T00:48:36;99599.28;;;10.08;99.02
10115;BME280;5097;43.260;27.812;2023-04-20T00:51:21;99579.69;;;10.12;98.15
10115;BME280;5097;43.260;27.812;2023-04-20T00:54:07;99552.25;;;10.29;96.06
10115;BME280;5097;43.260;27.812;2023-04-20T00:56:51;99543.94;;;10.06;96.21
10115;BME280;5097;43.260;27.812;2023-04-20T00:59:35;99579.41;;;10.31;96.39
10115;BME280;5097;43.260;27.812;2023-04-20T01:02:19;99584.16;;;10.26;96.47
10115;BME280;5097;43.260;27.812;2023-04-20T01:05:04;99558.06;;;9.91;97.10
10115;BME280;5097;43.260;27.812;2023-04-20T01:07:48;99544.69;;;10.09;95.77
10115;BME280;5097;43.260;27.812;2023-04-20T01:10:34;99579.91;;;10.38;95.69
10115;BME280;5097;43.260;27.812;2023-04-20T01:13:21;99566.75;;;10.22;95.80
10115;BME280;5097;43.260;27.812;2023-04-20T01:16:06;99593.69;;;10.43;94.95
10115;BME280;5097;43.260;27.812;2023-04-20T01:18:51;99579.91;;;10.38;95.54
10115;BME280;5097;43.260;27.812;2023-04-20T01:21:34;99579.78;;;10.25;95.62
10115;BME280;5097;43.260;27.812;2023-04-20T01:24:20;99582.22;;;9.99;97.03
10115;BME280;5097;43.260;27.812;2023-04-20T01:27:05;99555.84;;;9.69;97.66
10115;BME280;5097;43.260;27.812;2023-04-20T01:29:49;99583.69;;;9.89;98.29
10115;BME280;5097;43.260;27.812;2023-04-20T01:32:33;99570.06;;;9.66;98.33
10115;BME280;5097;43.260;27.812;2023-04-20T01:35:17;99569.16;;;9.82;98.21
10115;BME280;5097;43.260;27.812;2023-04-20T01:38:01;99567.69;;;9.62;99.24
10115;BME280;5097;43.260;27.812;2023-04-20T01:40:47;99583.34;;;9.65;99.16
10115;BME280;5097;43.260;27.812;2023-04-20T01:43:32;99577.47;;;9.60;99.23
10115;BME280;5097;43.260;27.812;2023-04-20T01:46:16;99572.06;;;9.77;98.29
10115;BME280;5097;43.260;27.812;2023-04-20T01:49:01;99563.22;;;9.78;98.49
10115;BME280;5097;43.260;27.812;2023-04-20T01:51:45;99561.91;;;9.55;99.06
10115;BME280;5097;43.260;27.812;2023-04-20T01:54:29;99569.88;;;9.69;99.60
10115;BME280;5097;43.260;27.812;2023-04-20T01:57:14;99582.31;;;9.67;99.70
10115;BME280;5097;43.260;27.812;2023-04-20T01:59:58;99581.84;;;9.75;98.73
10115;BME280;5097;43.260;27.812;2023-04-20T02:02:56;99557.31;;;9.59;98.06
10115;BME280;5097;43.260;27.812;2023-04-20T02:05:40;99594.09;;;9.76;99.31
10115;BME280;5097;43.260;27.812;2023-04-20T02:08:24;99591.38;;;9.78;98.73
10115;BME280;5097;43.260;27.812;2023-04-20T02:11:08;99599.28;;;9.78;100.00
10115;BME280;5097;43.260;27.812;2023-04-20T02:13:54;99590.97;;;9.69;100.00
10115;BME280;5097;43.260;27.812;2023-04-20T02:16:38;99599.56;;;10.03;99.74
10115;BME280;5097;43.260;27.812;2023-04-20T02:19:22;99586.81;;;9.65;99.16
10115;BME280;5097;43.260;27.812;2023-04-20T02:22:06;99565.09;;;9.46;98.63
10115;BME280;5097;43.260;27.812;2023-04-20T02:24:49;99577.91;;;9.52;99.32
10115;BME280;5097;43.260;27.812;2023-04-20T02:27:34;99568.00;;;9.71;98.90
10115;BME280;5097;43.260;27.812;2023-04-20T02:30:20;99581.78;;;9.91;99.43
10115;BME280;5097;43.260;27.812;2023-04-20T02:33:04;99578.13;;;9.94;99.07
10115;BME280;5097;43.260;27.812;2023-04-20T02:35:49;99578.34;;;10.05;98.58
10115;BME280;5097;43.260;27.812;2023-04-20T02:38:33;99570.69;;;10.00;99.35
10115;BME280;5097;43.260;27.812;2023-04-20T02:41:17;99550.91;;;9.93;98.71
10115;BME280;5097;43.260;27.812;2023-04-20T02:44:02;99562.63;;;10.03;98.50
10115;BME280;5097;43.260;27.812;2023-04-20T02:46:50;99579.88;;;10.09;99.22
10115;BME280;5097;43.260;27.812;2023-04-20T02:49:36;99572.13;;;10.20;98.74
10115;BME280;5097;43.260;27.812;2023-04-20T02:52:20;99568.19;;;10.13;99.47
10115;BME280;5097;43.260;27.812;2023-04-20T02:55:05;99565.81;;;9.94;98.69
10115;BME280;5097;43.260;27.812;2023-04-20T02:57:50;99558.88;;;10.36;98.31
10115;BME280;5097;43.260;27.812;2023-04-20T03:00:42;99557.34;;;10.32;97.29
10115;BME280;5097;43.260;27.812;2023-04-20T03:03:27;99525.84;;;10.15;97.35
10115;BME280;5097;43.260;27.812;2023-04-20T03:06:13;99559.03;;;10.19;98.44
10115;BME280;5097;43.260;27.812;2023-04-20T03:09:02;99562.44;;;10.21;98.36
10115;BME280;5097;43.260;27.812;2023-04-20T03:12:05;99564.34;;;10.33;97.99
10115;BME280;5097;43.260;27.812;2023-04-20T03:15:10;99555.25;;;10.09;98.23
10115;BME280;5097;43.260;27.812;2023-04-20T03:18:33;99568.31;;;10.26;98.46
10115;BME280;5097;43.260;27.812;2023-04-20T03:21:17;99556.34;;;10.35;96.64
10115;BME280;5097;43.260;27.812;2023-04-20T03:24:03;99562.28;;;10.38;97.08
10115;BME280;5097;43.260;27.812;2023-04-20T03:26:47;99553.25;;;10.43;96.57
10115;BME280;5097;43.260;27.812;2023-04-20T03:29:35;99555.28;;;10.23;98.16
10115;BME280;5097;43.260;27.812;2023-04-20T03:32:20;99562.13;;;10.11;98.05
10115;BME280;5097;43.260;27.812;2023-04-20T03:35:06;99553.03;;;10.17;97.75
10115;BME280;5097;43.260;27.812;2023-04-20T03:37:51;99564.78;;;10.11;98.70
10115;BME280;5097;43.260;27.812;2023-04-20T03:40:35;99560.09;;;10.31;97.76
10115;BME280;5097;43.260;27.812;2023-04-20T03:43:19;99566.69;;;10.23;98.35
10115;BME280;5097;43.260;27.812;2023-04-20T03:46:03;99557.53;;;10.29;97.74
10115;BME280;5097;43.260;27.812;2023-04-20T03:48:47;99563.50;;;10.33;97.09
10115;BME280;5097;43.260;27.812;2023-04-20T03:51:33;99565.09;;;10.21;97.99
10115;BME280;5097;43.260;27.812;2023-04-20T03:54:19;99559.25;;;10.16;98.66
10115;BME280;5097;43.260;27.812;2023-04-20T03:57:03;99566.00;;;10.05;99.30
10115;BME280;5097;43.260;27.812;2023-04-20T03:59:47;99551.38;;;10.00;99.62
10115;BME280;5097;43.260;27.812;2023-04-20T04:02:35;99566.59;;;10.25;98.45
10115;BME280;5097;43.260;27.812;2023-04-20T04:05:20;99525.47;;;10.06;98.48
10115;BME280;5097;43.260;27.812;2023-04-20T04:08:06;99563.56;;;10.31;97.83
10115;BME280;5097;43.260;27.812;2023-04-20T04:10:50;99542.28;;;10.20;98.27
10115;BME280;5097;43.260;27.812;2023-04-20T04:13:34;99575.66;;;10.21;99.22
10115;BME280;5097;43.260;27.812;2023-04-20T04:16:20;99567.84;;;10.48;98.30
10115;BME280;5097;43.260;27.812;2023-04-20T04:19:05;99564.63;;;10.43;98.50
10115;BME280;5097;43.260;27.812;2023-04-20T04:21:49;99566.25;;;10.60;97.44
10115;BME280;5097;43.260;27.812;2023-04-20T04:24:35;99561.53;;;10.51;98.00
10115;BME280;5097;43.260;27.812;2023-04-20T04:27:22;99571.16;;;10.66;97.91
10115;BME280;5097;43.260;27.812;2023-04-20T04:30:13;99567.09;;;10.61;97.96
10115;BME280;5097;43.260;27.812;2023-04-20T04:32:57;99567.53;;;10.82;96.48
10115;BME280;5097;43.260;27.812;2023-04-20T04:35:42;99564.44;;;10.61;97.40
10115;BME280;5097;43.260;27.812;2023-04-20T04:38:27;99582.19;;;10.73;97.46
10115;BME280;5097;43.260;27.812;2023-04-20T04:41:14;99533.31;;;10.66;97.99
10115;BME280;5097;43.260;27.812;2023-04-20T04:44:04;99581.63;;;11.24;96.32
10115;BME280;5097;43.260;27.812;2023-04-20T04:46:48;99593.81;;;11.67;94.13
10115;BME280;5097;43.260;27.812;2023-04-20T04:49:32;99585.78;;;11.81;92.81
10115;BME280;5097;43.260;27.812;2023-04-20T04:52:17;99595.19;;;12.13;91.95
10115;BME280;5097;43.260;27.812;2023-04-20T04:55:01;99593.41;;;12.26;90.89
10115;BME280;5097;43.260;27.812;2023-04-20T04:57:50;99586.97;;;12.43;90.33
10115;BME280;5097;43.260;27.812;2023-04-20T05:00:34;99574.63;;;12.68;89.87
10115;BME280;5097;43.260;27.812;2023-04-20T05:03:18;99594.53;;;12.86;89.05
10115;BME280;5097;43.260;27.812;2023-04-20T05:06:03;99571.88;;;13.44;85.63
10115;BME280;5097;43.260;27.812;2023-04-20T05:08:47;99591.41;;;13.43;87.77
10115;BME280;5097;43.260;27.812;2023-04-20T05:11:31;99598.38;;;13.19;86.47
10115;BME280;5097;43.260;27.812;2023-04-20T05:14:16;99599.78;;;12.99;89.76
10115;BME280;5097;43.260;27.812;2023-04-20T05:17:00;99600.59;;;13.50;87.13
10115;BME280;5097;43.260;27.812;2023-04-20T05:19:44;99606.97;;;13.71;85.77
10115;BME280;5097;43.260;27.812;2023-04-20T05:22:28;99600.72;;;13.35;86.63
10115;BME280;5097;43.260;27.812;2023-04-20T05:25:12;99602.56;;;13.59;86.60
10115;BME280;5097;43.260;27.812;2023-04-20T05:27:56;99567.16;;;13.71;85.09
10115;BME280;5097;43.260;27.812;2023-04-20T05:30:42;99604.25;;;12.99;87.02
10115;BME280;5097;43.260;27.812;2023-04-20T05:33:26;99609.81;;;12.57;89.21
10115;BME280;5097;43.260;27.812;2023-04-20T05:36:10;99603.53;;;12.71;89.62
10115;BME280;5097;43.260;27.812;2023-04-20T05:38:54;99602.75;;;12.45;90.94
10115;BME280;5097;43.260;27.812;2023-04-20T05:41:38;99607.06;;;12.71;89.35
10115;BME280;5097;43.260;27.812;2023-04-20T05:44:21;99603.06;;;12.53;91.78
10115;BME280;5097;43.260;27.812;2023-04-20T05:47:07;99606.72;;;12.76;90.60
10115;BME280;5097;43.260;27.812;2023-04-20T05:49:51;99608.84;;;12.84;90.50
10115;BME280;5097;43.260;27.812;2023-04-20T05:52:35;99620.97;;;12.62;91.40
10115;BME280;5097;43.260;27.812;2023-04-20T05:55:19;99614.72;;;12.24;91.86
10115;BME280;5097;43.260;27.812;2023-04-20T05:58:04;99612.69;;;12.41;92.48
10115;BME280;5097;43.260;27.812;2023-04-20T06:00:48;99627.22;;;12.61;91.73
10115;BME280;5097;43.260;27.812;2023-04-20T06:03:33;99620.50;;;12.68;90.23
10115;BME280;5097;43.260;27.812;2023-04-20T06:06:18;99621.91;;;12.61;92.37
10115;BME280;5097;43.260;27.812;2023-04-20T06:09:01;99626.34;;;12.73;90.69
10115;BME280;5097;43.260;27.812;2023-04-20T06:11:46;99621.59;;;13.16;89.56
10115;BME280;5097;43.260;27.812;2023-04-20T06:14:31;99615.63;;;13.25;86.94
10115;BME280;5097;43.260;27.812;2023-04-20T06:17:15;99612.09;;;13.00;88.37
10115;BME280;5097;43.260;27.812;2023-04-20T06:20:01;99600.59;;;13.13;87.98
10115;BME280;5097;43.260;27.812;2023-04-20T06:22:45;99618.97;;;13.03;87.49
10115;BME280;5097;43.260;27.812;2023-04-20T06:25:29;99610.75;;;13.19;87.49
10115;BME280;5097;43.260;27.812;2023-04-20T06:28:13;99615.78;;;13.11;88.09
10115;BME280;5097;43.260;27.812;2023-04-20T06:30:57;99608.50;;;13.63;86.28
10115;BME280;5097;43.260;27.812;2023-04-20T06:33:41;99604.88;;;13.99;84.46
10115;BME280;5097;43.260;27.812;2023-04-20T06:36:26;99614.13;;;14.18;82.60
10115;BME280;5097;43.260;27.812;2023-04-20T06:39:10;99611.13;;;13.87;83.09
10115;BME280;5097;43.260;27.812;2023-04-20T06:41:54;99618.44;;;14.07;83.60
10115;BME280;5097;43.260;27.812;2023-04-20T06:44:38;99621.72;;;14.22;83.40
10115;BME280;5097;43.260;27.812;2023-04-20T06:47:22;99614.31;;;14.03;83.54
10115;BME280;5097;43.260;27.812;2023-04-20T06:50:12;99611.31;;;13.72;84.34
10115;BME280;5097;43.260;27.812;2023-04-20T06:52:58;99622.19;;;13.32;85.26
10115;BME280;5097;43.260;27.812;2023-04-20T06:55:41;99531.06;;;12.96;86.34
10115;BME280;5097;43.260;27.812;2023-04-20T06:58:25;99625.84;;;12.55;89.39
10115;BME280;5097;43.260;27.812;2023-04-20T07:01:09;99627.00;;;12.38;92.82
10115;BME280;5097;43.260;27.812;2023-04-20T07:03:53;99627.00;;;12.38;93.59
10115;BME280;5097;43.260;27.812;2023-04-20T07:06:38;99569.81;;;12.23;94.14
10115;BME280;5097;43.260;27.812;2023-04-20T07:09:23;99631.81;;;13.09;93.94
10115;BME280;5097;43.260;27.812;2023-04-20T07:12:08;99618.75;;;13.06;94.08
10115;BME280;5097;43.260;27.812;2023-04-20T07:14:53;99609.91;;;12.81;94.57
10115;BME280;5097;43.260;27.812;2023-04-20T07:17:37;99629.28;;;12.82;93.21
10115;BME280;5097;43.260;27.812;2023-04-20T07:20:21;99628.03;;;12.74;92.77
10115;BME280;5097;43.260;27.812;2023-04-20T07:23:05;99619.84;;;13.40;94.35
10115;BME280;5097;43.260;27.812;2023-04-20T07:25:51;99609.78;;;13.33;92.68
10115;BME280;5097;43.260;27.812;2023-04-20T07:28:34;99615.16;;;13.44;89.04
10115;BME280;5097;43.260;27.812;2023-04-20T07:31:19;99614.22;;;13.45;90.05
10115;BME280;5097;43.260;27.812;2023-04-20T07:34:03;99617.81;;;13.68;89.88
10115;BME280;5097;43.260;27.812;2023-04-20T07:36:47;99616.59;;;13.61;85.68
10115;BME280;5097;43.260;27.812;2023-04-20T07:39:31;99633.00;;;13.90;87.46
10115;BME280;5097;43.260;27.812;2023-04-20T07:42:16;99624.66;;;13.95;85.30
10115;BME280;5097;43.260;27.812;2023-04-20T07:45:00;99592.81;;;13.60;84.40
10115;BME280;5097;43.260;27.812;2023-04-20T07:47:46;99640.75;;;13.69;84.46
10115;BME280;5097;43.260;27.812;2023-04-20T07:50:33;99633.75;;;13.68;86.99
10115;BME280;5097;43.260;27.812;2023-04-20T07:53:16;99627.22;;;13.97;84.83
10115;BME280;5097;43.260;27.812;2023-04-20T07:56:00;99631.94;;;14.04;82.72
10115;BME280;5097;43.260;27.812;2023-04-20T07:58:45;99632.81;;;14.63;81.43
10115;BME280;5097;43.260;27.812;2023-04-20T08:01:29;99629.97;;;14.42;81.69
10115;BME280;5097;43.260;27.812;2023-04-20T08:04:13;99634.13;;;15.03;77.89
10115;BME280;5097;43.260;27.812;2023-04-20T08:06:58;99632.31;;;14.11;80.58
10115;BME280;5097;43.260;27.812;2023-04-20T08:09:42;99637.97;;;13.47;82.87
10115;BME280;5097;43.260;27.812;2023-04-20T08:12:26;99634.41;;;14.19;81.56
10115;BME280;5097;43.260;27.812;2023-04-20T08:15:12;99623.03;;;14.17;84.15
10115;BME280;5097;43.260;27.812;2023-04-20T08:17:56;99641.16;;;14.70;78.13
10115;BME280;5097;43.260;27.812;2023-04-20T08:20:40;99632.75;;;14.52;77.79
10115;BME280;5097;43.260;27.812;2023-04-20T08:23:25;99632.19;;;14.01;79.32
10115;BME280;5097;43.260;27.812;2023-04-20T08:26:13;99631.50;;;14.22;80.12
10115;BME280;5097;43.260;27.812;2023-04-20T08:28:58;99626.25;;;14.45;80.18
10115;BME280;5097;43.260;27.812;2023-04-20T08:31:44;99632.34;;;14.22;82.30
10115;BME280;5097;43.260;27.812;2023-04-20T08:34:30;99633.84;;;13.91;83.88
10115;BME280;5097;43.260;27.812;2023-04-20T08:37:14;99637.53;;;14.71;81.06
10115;BME280;5097;43.260;27.812;2023-04-20T08:39:58;99628.25;;;14.77;78.90
10115;BME280;5097;43.260;27.812;2023-04-20T08:42:42;99624.41;;;14.34;80.23
10115;BME280;5097;43.260;27.812;2023-04-20T08:45:26;99631.44;;;14.35;78.23
10115;BME280;5097;43.260;27.812;2023-04-20T08:48:13;99614.44;;;14.83;77.53
10115;BME280;5097;43.260;27.812;2023-04-20T08:51:00;99632.81;;;14.74;77.36
10115;BME280;5097;43.260;27.812;2023-04-20T08:53:44;99623.22;;;13.91;77.88
10115;BME280;5097;43.260;27.812;2023-04-20T08:56:33;99627.50;;;13.81;80.88
10115;BME280;5097;43.260;27.812;2023-04-20T08:59:17;99631.94;;;13.93;80.03
10115;BME280;5097;43.260;27.812;2023-04-20T09:02:08;99645.53;;;13.27;83.45
10115;BME280;5097;43.260;27.812;2023-04-20T09:05:02;99645.66;;;13.13;83.50
10115;BME280;5097;43.260;27.812;2023-04-20T09:07:50;99603.44;;;13.22;82.96
10115;BME280;5097;43.260;27.812;2023-04-20T09:10:39;99631.25;;;13.54;83.42
10115;BME280;5097;43.260;27.812;2023-04-20T09:13:24;99606.66;;;14.23;81.73
10115;BME280;5097;43.260;27.812;2023-04-20T09:16:09;99620.50;;;14.73;79.48
10115;BME280;5097;43.260;27.812;2023-04-20T09:18:54;99645.38;;;15.18;77.60
10115;BME280;5097;43.260;27.812;2023-04-20T09:21:47;99643.09;;;14.68;79.17
10115;BME280;5097;43.260;27.812;2023-04-20T09:24:32;99606.84;;;14.08;80.13
10115;BME280;5097;43.260;27.812;2023-04-20T09:27:17;99639.97;;;14.27;79.91
10115;BME280;5097;43.260;27.812;2023-04-20T09:30:03;99622.59;;;14.34;81.67
10115;BME280;5097;43.260;27.812;2023-04-20T09:32:48;99640.53;;;14.55;81.77
10115;BME280;5097;43.260;27.812;2023-04-20T09:35:32;99634.97;;;14.47;81.84
10115;BME280;5097;43.260;27.812;2023-04-20T09:38:24;99607.69;;;13.73;81.49
10115;BME280;5097;43.260;27.812;2023-04-20T09:41:08;99606.41;;;14.26;82.64
10115;BME280;5097;43.260;27.812;2023-04-20T09:43:52;99643.53;;;14.03;81.02
10115;BME280;5097;43.260;27.812;2023-04-20T09:46:38;99643.31;;;14.06;81.46
10115;BME280;5097;43.260;27.812;2023-04-20T09:49:23;99611.63;;;13.19;83.96
10115;BME280;5097;43.260;27.812;2023-04-20T09:52:08;99647.31;;;13.02;86.15
10115;BME280;5097;43.260;27.812;2023-04-20T09:54:53;99631.91;;;13.45;85.19
10115;BME280;5097;43.260;27.812;2023-04-20T09:57:38;99636.47;;;13.80;83.88
10115;BME280;5097;43.260;27.812;2023-04-20T10:00:22;99646.28;;;13.66;82.83
10115;BME280;5097;43.260;27.812;2023-04-20T10:03:06;99637.34;;;13.67;83.48
10115;BME280;5097;43.260;27.812;2023-04-20T10:05:52;99642.25;;;13.61;82.47
10115;BME280;5097;43.260;27.812;2023-04-20T10:08:40;99630.44;;;13.65;83.24
10115;BME280;5097;43.260;27.812;2023-04-20T10:11:30;99614.50;;;13.89;81.05
10115;BME280;5097;43.260;27.812;2023-04-20T10:14:31;99644.41;;;15.07;77.81
10115;BME280;5097;43.260;27.812;2023-04-20T10:17:14;99574.75;;;14.34;78.02
10115;BME280;5097;43.260;27.812;2023-04-20T10:19:59;99643.69;;;14.71;78.63
10115;BME280;5097;43.260;27.812;2023-04-20T10:22:44;99612.16;;;13.97;77.35
10115;BME280;5097;43.260;27.812;2023-04-20T10:25:28;99643.91;;;14.10;78.68
10115;BME280;5097;43.260;27.812;2023-04-20T10:28:14;99632.13;;;14.25;78.43
10115;BME280;5097;43.260;27.812;2023-04-20T10:30:59;99639.69;;;14.07;78.88
10115;BME280;5097;43.260;27.812;2023-04-20T10:33:51;99640.06;;;13.79;79.80
10115;BME280;5097;43.260;27.812;2023-04-20T10:36:35;99631.19;;;14.02;79.95
10115;BME280;5097;43.260;27.812;2023-04-20T10:39:19;99632.09;;;14.14;78.93
10115;BME280;5097;43.260;27.812;2023-04-20T10:42:04;99635.13;;;14.21;79.00
10115;BME280;5097;43.260;27.812;2023-04-20T10:44:50;99652.41;;;13.91;79.36
10115;BME280;5097;43.260;27.812;2023-04-20T10:47:34;99636.84;;;13.62;80.41
10115;BME280;5097;43.260;27.812;2023-04-20T10:50:19;99638.16;;;13.19;82.75
10115;BME280;5097;43.260;27.812;2023-04-20T10:53:04;99616.31;;;13.03;83.12
10115;BME280;5097;43.260;27.812;2023-04-20T10:55:57;99641.97;;;13.77;81.30
10115;BME280;5097;43.260;27.812;2023-04-20T10:58:41;99662.25;;;13.78;78.69
10115;BME280;5097;43.260;27.812;2023-04-20T11:01:30;99645.69;;;13.74;80.09
10115;BME280;5097;43.260;27.812;2023-04-20T11:04:14;99633.72;;;14.28;77.62
10115;BME280;5097;43.260;27.812;2023-04-20T11:07:04;99600.50;;;14.34;76.83
10115;BME280;5097;43.260;27.812;2023-04-20T11:09:52;99633.59;;;13.94;78.50
10115;BME280;5097;43.260;27.812;2023-04-20T11:12:37;99626.19;;;14.22;77.29
10115;BME280;5097;43.260;27.812;2023-04-20T11:15:30;99624.50;;;14.21;77.82
10115;BME280;5097;43.260;27.812;2023-04-20T11:18:16;99612.25;;;14.88;75.83
10115;BME280;5097;43.260;27.812;2023-04-20T11:21:01;99611.50;;;14.52;74.75
10115;BME280;5097;43.260;27.812;2023-04-20T11:23:45;99625.78;;;14.96;75.30
10115;BME280;5097;43.260;27.812;2023-04-20T11:26:34;99624.81;;;15.20;73.74
10115;BME280;5097;43.260;27.812;2023-04-20T11:29:29;99629.56;;;14.71;73.52
10115;BME280;5097;43.260;27.812;2023-04-20T11:32:17;99625.22;;;14.93;73.70
10115;BME280;5097;43.260;27.812;2023-04-20T11:35:04;99624.84;;;15.08;72.17
10115;BME280;5097;43.260;27.812;2023-04-20T11:37:50;99636.69;;;15.04;73.10
10115;BME280;5097;43.260;27.812;2023-04-20T11:40:35;99592.25;;;15.28;73.50
10115;BME280;5097;43.260;27.812;2023-04-20T11:43:19;99580.94;;;15.47;70.57
10115;BME280;5097;43.260;27.812;2023-04-20T11:46:11;99629.06;;;15.99;70.43
10115;BME280;5097;43.260;27.812;2023-04-20T11:48:55;99624.38;;;16.12;68.83
10115;BME280;5097;43.260;27.812;2023-04-20T11:51:42;99646.97;;;14.86;71.09
10115;BME280;5097;43.260;27.812;2023-04-20T11:54:28;99623.16;;;14.85;73.64
10115;BME280;5097;43.260;27.812;2023-04-20T11:57:15;99592.41;;;14.35;72.65
10115;BME280;5097;43.260;27.812;2023-04-20T11:59:59;99634.22;;;14.56;73.98
10115;BME280;5097;43.260;27.812;2023-04-20T12:02:55;99611.00;;;14.24;74.61
10115;BME280;5097;43.260;27.812;2023-04-20T12:05:41;99617.44;;;14.55;71.94
10115;BME280;5097;43.260;27.812;2023-04-20T12:08:27;99629.38;;;15.29;72.64
10115;BME280;5097;43.260;27.812;2023-04-20T12:11:11;99629.19;;;14.98;72.55
10115;BME280;5097;43.260;27.812;2023-04-20T12:13:55;99635.09;;;14.68;71.96
10115;BME280;5097;43.260;27.812;2023-04-20T12:16:39;99626.63;;;15.08;72.36
10115;BME280;5097;43.260;27.812;2023-04-20T12:19:23;99632.53;;;15.23;72.04
10115;BME280;5097;43.260;27.812;2023-04-20T12:22:07;99630.34;;;15.28;71.19
10115;BME280;5097;43.260;27.812;2023-04-20T12:24:52;99628.84;;;15.47;69.46
10115;BME280;5097;43.260;27.812;2023-04-20T12:27:36;99619.03;;;15.58;70.84
10115;BME280;5097;43.260;27.812;2023-04-20T12:30:20;99657.94;;;15.27;69.30
10115;BME280;5097;43.260;27.812;2023-04-20T12:33:04;99619.66;;;14.73;71.28
10115;BME280;5097;43.260;27.812;2023-04-20T12:35:48;99611.28;;;15.12;71.47
10115;BME280;5097;43.260;27.812;2023-04-20T12:38:32;99633.13;;;15.82;68.73
10115;BME280;5097;43.260;27.812;2023-04-20T12:41:17;99619.19;;;15.46;69.08
10115;BME280;5097;43.260;27.812;2023-04-20T12:44:01;99605.53;;;14.72;71.21
10115;BME280;5097;43.260;27.812;2023-04-20T12:46:49;99611.53;;;14.97;69.50
10115;BME280;5097;43.260;27.812;2023-04-20T12:49:33;99647.31;;;14.93;69.78
10115;BME280;5097;43.260;27.812;2023-04-20T12:52:17;99623.03;;;14.64;71.05
10115;BME280;5097;43.260;27.812;2023-04-20T12:55:01;99602.41;;;14.20;72.40
10115;BME280;5097;43.260;27.812;2023-04-20T12:57:47;99601.59;;;14.54;73.14
10115;BME280;5097;43.260;27.812;2023-04-20T13:00:31;99618.06;;;14.59;71.52
10115;BME280;5097;43.260;27.812;2023-04-20T13:03:16;99618.69;;;14.16;73.69
10115;BME280;5097;43.260;27.812;2023-04-20T13:06:00;99612.91;;;14.11;73.82
10115;BME280;5097;43.260;27.812;2023-04-20T13:08:43;99618.16;;;13.99;74.88
10115;BME280;5097;43.260;27.812;2023-04-20T13:11:28;99616.84;;;14.05;75.60
10115;BME280;5097;43.260;27.812;2023-04-20T13:14:14;99614.09;;;14.06;74.66
10115;BME280;5097;43.260;27.812;2023-04-20T13:16:58;99598.91;;;14.20;75.37
10115;BME280;5097;43.260;27.812;2023-04-20T13:19:45;99599.19;;;14.51;75.37
10115;BME280;5097;43.260;27.812;2023-04-20T13:22:29;99595.44;;;14.42;75.36
10115;BME280;5097;43.260;27.812;2023-04-20T13:25:13;99608.16;;;13.67;78.65
10115;BME280;5097;43.260;27.812;2023-04-20T13:27:57;99607.38;;;12.80;85.16
10115;BME280;5097;43.260;27.812;2023-04-20T13:30:43;99565.44;;;12.98;84.99
10115;BME280;5097;43.260;27.812;2023-04-20T13:33:27;99597.78;;;13.27;84.43
10115;BME280;5097;43.260;27.812;2023-04-20T13:36:11;99597.44;;;14.04;82.60
10115;BME280;5097;43.260;27.812;2023-04-20T13:38:55;99609.91;;;13.80;80.70
10115;BME280;5097;43.260;27.812;2023-04-20T13:41:39;99568.56;;;14.00;78.30
10115;BME280;5097;43.260;27.812;2023-04-20T13:44:23;99597.41;;;13.93;78.63
10115;BME280;5097;43.260;27.812;2023-04-20T13:47:08;99593.75;;;13.83;79.40
10115;BME280;5097;43.260;27.812;2023-04-20T13:49:52;99619.16;;;13.50;80.09
10115;BME280;5097;43.260;27.812;2023-04-20T13:52:36;99584.19;;;13.80;79.11
10115;BME280;5097;43.260;27.812;2023-04-20T13:55:20;99598.38;;;14.03;78.96
10115;BME280;5097;43.260;27.812;2023-04-20T13:58:07;99588.34;;;13.96;77.44
10115;BME280;5097;43.260;27.812;2023-04-20T14:00:51;99593.31;;;14.00;77.15
10115;BME280;5097;43.260;27.812;2023-04-20T14:03:37;99589.91;;;13.87;76.35
10115;BME280;5097;43.260;27.812;2023-04-20T14:06:21;99590.81;;;13.74;78.88
10115;BME280;5097;43.260;27.812;2023-04-20T14:09:05;99590.72;;;13.52;78.25
10115;BME280;5097;43.260;27.812;2023-04-20T14:11:49;99594.78;;;13.45;80.47
10115;BME280;5097;43.260;27.812;2023-04-20T14:14:38;99591.09;;;13.34;80.93
10115;BME280;5097;43.260;27.812;2023-04-20T14:17:22;99587.41;;;13.37;80.57
10115;BME280;5097;43.260;27.812;2023-04-20T14:20:09;99588.19;;;13.50;81.64
10115;BME280;5097;43.260;27.812;2023-04-20T14:22:53;99562.00;;;13.08;81.30
10115;BME280;5097;43.260;27.812;2023-04-20T14:25:37;99612.09;;;13.00;81.43
10115;BME280;5097;43.260;27.812;2023-04-20T14:28:21;99594.47;;;12.99;82.73
10115;BME280;5097;43.260;27.812;2023-04-20T14:31:05;99612.19;;;13.12;82.64
10115;BME280;5097;43.260;27.812;2023-04-20T14:33:49;99608.91;;;12.95;82.93
10115;BME280;5097;43.260;27.812;2023-04-20T14:36:34;99611.72;;;12.81;83.05